createdAt,value
2022-11-28T00:01:52.081Z,5.20
2022-11-28T00:06:14.589Z,5.22
2022-11-28T00:10:41.002Z,4.60
2022-11-28T00:15:04.459Z,5.45
2022-11-28T00:19:26.299Z,5.85
2022-11-28T00:23:49.581Z,5.88
2022-11-28T00:28:11.206Z,5.97
2022-11-28T00:32:33.103Z,5.75
2022-11-28T00:36:54.990Z,6.65
2022-11-28T00:41:21.128Z,5.50
2022-11-28T00:45:43.427Z,6.03
2022-11-28T00:50:06.237Z,5.07
2022-11-28T00:54:28.289Z,5.50
2022-11-28T00:58:50.802Z,5.28
2022-11-28T01:03:12.580Z,5.50
2022-11-28T01:07:34.774Z,6.05
2022-11-28T01:11:56.671Z,4.50
2022-11-28T01:16:18.661Z,4.82
2022-11-28T01:20:40.563Z,4.93
2022-11-28T01:25:02.602Z,5.28
2022-11-28T01:29:24.686Z,5.55
2022-11-28T01:33:47.058Z,4.70
2022-11-28T01:38:09.016Z,5.68
2022-11-28T01:42:31.131Z,5.10
2022-11-28T01:46:53.161Z,5.32
2022-11-28T01:51:15.693Z,4.47
2022-11-28T01:55:48.759Z,4.97
2022-11-28T02:00:14.384Z,5.18
2022-11-28T02:04:36.342Z,4.45
2022-11-28T02:08:58.562Z,4.38
2022-11-28T02:14:00.424Z,4.50
2022-11-28T02:18:55.507Z,4.72
2022-11-28T02:23:51.523Z,5.05
2022-11-28T02:28:38.045Z,5.32
2022-11-28T02:33:27.681Z,4.22
2022-11-28T02:37:49.199Z,4.05
2022-11-28T02:42:53.495Z,4.63
2022-11-28T02:47:34.098Z,5.13
2022-11-28T02:52:16.921Z,4.95
2022-11-28T02:56:39.390Z,4.80
2022-11-28T03:01:01.282Z,4.07
2022-11-28T03:05:38.008Z,4.82
2022-11-28T03:10:33.803Z,5.53
2022-11-28T03:15:00.591Z,4.78
2022-11-28T03:19:38.104Z,4.38
2022-11-28T03:24:20.192Z,4.55
2022-11-28T03:29:20.936Z,4.65
2022-11-28T03:33:52.301Z,4.45
2022-11-28T03:38:30.729Z,4.28
2022-11-28T03:43:09.648Z,4.90
2022-11-28T03:47:41.873Z,5.68
2022-11-28T03:52:32.829Z,4.28
2022-11-28T03:57:13.108Z,4.50
2022-11-28T04:02:21.162Z,4.53
2022-11-28T04:07:03.336Z,5.55
2022-11-28T04:11:38.843Z,5.55
2022-11-28T04:16:08.177Z,5.05
2022-11-28T04:21:15.240Z,5.20
2022-11-28T04:25:40.254Z,6.80
2022-11-28T04:30:05.568Z,4.90
2022-11-28T04:34:30.687Z,6.40
2022-11-28T04:38:57.515Z,4.60
2022-11-28T04:43:29.181Z,6.30
2022-11-28T04:47:51.416Z,5.10
2022-11-28T04:52:30.013Z,6.90
2022-11-28T04:57:26.694Z,5.63
2022-11-28T05:01:50.335Z,7.28
2022-11-28T05:06:31.572Z,6.40
2022-11-28T05:10:53.484Z,6.10
2022-11-28T05:15:19.313Z,7.32
2022-11-28T05:19:41.436Z,6.15
2022-11-28T05:24:04.316Z,6.70
2022-11-28T05:28:26.035Z,6.03
2022-11-28T05:32:47.912Z,6.82
2022-11-28T05:37:10.403Z,6.45
2022-11-28T05:41:33.466Z,6.30
2022-11-28T05:45:56.392Z,6.65
2022-11-28T05:50:18.604Z,6.50
2022-11-28T05:54:40.345Z,5.93
2022-11-28T05:59:02.384Z,6.88
2022-11-28T06:03:24.532Z,5.95
2022-11-28T06:07:46.521Z,7.30
2022-11-28T06:12:10.764Z,7.25
2022-11-28T06:16:33.400Z,6.78
2022-11-28T06:20:56.693Z,6.65
2022-11-28T06:25:18.894Z,8.45
2022-11-28T06:29:41.092Z,8.60
2022-11-28T06:34:03.057Z,8.73
2022-11-28T06:38:25.141Z,7.90
2022-11-28T06:42:50.466Z,7.15
2022-11-28T06:47:12.635Z,7.95
2022-11-28T06:51:34.462Z,8.30
2022-11-28T06:55:56.320Z,9.27
2022-11-28T07:00:18.699Z,8.00
2022-11-28T07:04:40.427Z,9.02
2022-11-28T07:09:02.733Z,8.32
2022-11-28T07:13:24.983Z,9.50
2022-11-28T07:17:46.598Z,8.10
2022-11-28T07:22:11.691Z,9.07
2022-11-28T07:26:34.085Z,8.07
2022-11-28T07:31:14.533Z,8.57
2022-11-28T07:35:36.623Z,8.35
2022-11-28T07:39:58.617Z,7.90
2022-11-28T07:44:22.782Z,8.50
2022-11-28T07:48:45.048Z,9.23
2022-11-28T07:53:07.492Z,7.38
2022-11-28T07:57:30.750Z,8.88
2022-11-28T08:01:53.926Z,9.45
2022-11-28T08:06:20.156Z,9.10
2022-11-28T08:10:42.133Z,8.80
2022-11-28T08:15:04.450Z,9.00
2022-11-28T08:19:28.317Z,8.07
2022-11-28T08:23:55.828Z,8.95
2022-11-28T08:28:17.614Z,8.80
2022-11-28T08:32:39.543Z,5.97
2022-11-28T08:37:01.520Z,9.65
2022-11-28T08:41:24.356Z,8.57
2022-11-28T08:45:46.803Z,9.43
2022-11-28T08:50:09.440Z,8.65
2022-11-28T08:54:31.908Z,9.32
2022-11-28T08:58:53.971Z,7.10
2022-11-28T09:03:18.291Z,8.82
2022-11-28T09:07:40.422Z,6.63
2022-11-28T09:12:02.327Z,6.97
2022-11-28T09:16:24.262Z,7.00
2022-11-28T09:20:46.307Z,8.25
2022-11-28T09:25:08.991Z,8.23
2022-11-28T09:29:30.827Z,7.30
2022-11-28T09:33:53.921Z,7.85
2022-11-28T09:38:15.823Z,6.68
2022-11-28T09:42:44.574Z,7.93
2022-11-28T09:47:33.060Z,7.15
2022-11-28T09:52:36.474Z,5.80
2022-11-28T09:57:00.295Z,6.85
2022-11-28T10:01:37.119Z,5.50
2022-11-28T10:06:20.474Z,4.80
2022-11-28T10:11:38.439Z,6.15
2022-11-28T10:16:57.209Z,5.47
2022-11-28T10:21:35.116Z,6.10
2022-11-28T10:26:22.760Z,4.38
2022-11-28T10:30:51.413Z,5.97
2022-11-28T10:35:36.762Z,5.88
2022-11-28T10:40:49.885Z,6.32
2022-11-28T10:45:23.782Z,6.40
2022-11-28T10:50:06.564Z,5.43
2022-11-28T10:55:21.827Z,5.05
2022-11-28T11:00:09.642Z,5.22
2022-11-28T11:04:34.120Z,6.40
2022-11-28T11:08:55.981Z,6.60
2022-11-28T11:13:26.291Z,6.82
2022-11-28T11:17:50.884Z,7.05
2022-11-28T11:22:29.181Z,5.35
2022-11-28T11:26:51.160Z,6.95
2022-11-28T11:31:44.161Z,7.25
2022-11-28T11:36:26.978Z,7.70
2022-11-28T11:40:51.073Z,5.95
2022-11-28T11:45:34.618Z,7.03
2022-11-28T11:50:06.037Z,6.35
2022-11-28T11:54:28.183Z,7.25
2022-11-28T11:58:53.353Z,7.45
2022-11-28T12:03:42.175Z,4.95
2022-11-28T12:08:14.480Z,7.35
2022-11-28T12:12:38.236Z,7.70
2022-11-28T12:17:47.315Z,6.88
2022-11-28T12:22:44.282Z,8.25
2022-11-28T12:27:46.261Z,8.50
2022-11-28T12:32:52.229Z,7.57
2022-11-28T12:43:05.908Z,8.27
2022-11-28T12:47:37.359Z,8.05
2022-11-28T12:52:18.890Z,8.57
2022-11-28T12:56:52.703Z,10.35
2022-11-28T13:01:49.544Z,8.50
2022-11-28T13:06:56.634Z,8.75
2022-11-28T13:11:45.136Z,8.65
2022-11-28T13:16:49.289Z,10.82
2022-11-28T13:21:46.230Z,11.02
2022-11-28T13:26:43.718Z,11.23
2022-11-28T13:31:33.077Z,11.48
2022-11-28T13:42:14.250Z,10.30
2022-11-28T13:46:25.657Z,9.68
2022-11-28T13:51:28.740Z,10.02
2022-11-28T13:56:06.978Z,10.02
2022-11-28T14:00:30.475Z,10.18
2022-11-28T14:04:52.526Z,8.50
2022-11-28T14:09:17.398Z,9.25
2022-11-28T14:14:04.036Z,9.10
2022-11-28T14:19:21.359Z,11.43
2022-11-28T14:24:11.399Z,11.57
2022-11-28T14:28:39.339Z,11.80
2022-11-28T14:33:17.457Z,11.13
2022-11-28T14:37:55.615Z,11.48
2022-11-28T14:42:44.003Z,11.52
2022-11-28T14:47:21.970Z,12.57
2022-11-28T14:52:00.134Z,12.40
2022-11-28T14:56:34.577Z,12.73
2022-11-28T15:01:00.150Z,12.27
2022-11-28T15:05:57.192Z,11.27
2022-11-28T15:10:51.635Z,11.20
2022-11-28T15:15:17.110Z,9.38
2022-11-28T15:19:49.303Z,12.90
2022-11-28T15:24:33.018Z,11.90
2022-11-28T15:29:18.343Z,11.35
2022-11-28T15:33:40.485Z,13.50
2022-11-28T15:38:02.627Z,13.02
2022-11-28T15:42:32.842Z,14.35
2022-11-28T15:46:56.773Z,13.48
2022-11-28T15:51:30.245Z,11.88
2022-11-28T15:56:15.086Z,13.07
2022-11-28T16:00:42.046Z,12.88
2022-11-28T16:05:11.809Z,10.82
2022-11-28T16:09:35.831Z,14.40
2022-11-28T16:14:06.334Z,11.52
2022-11-28T16:18:30.364Z,11.82
2022-11-28T16:22:59.762Z,13.55
2022-11-28T16:27:41.696Z,13.57
2022-11-28T16:32:35.649Z,13.25
2022-11-28T16:36:57.881Z,13.93
2022-11-28T16:41:26.912Z,13.30
2022-11-28T16:45:59.473Z,12.85
2022-11-28T16:50:24.769Z,12.95
2022-11-28T16:54:48.781Z,13.70
2022-11-28T16:59:17.820Z,13.93
2022-11-28T17:03:49.805Z,20.17
2022-11-28T17:08:12.090Z,19.77
2022-11-28T17:12:37.136Z,32.28
2022-11-28T17:17:02.264Z,15.77
2022-11-28T17:21:36.477Z,19.58
2022-11-28T17:26:01.034Z,15.55
2022-11-28T17:30:23.375Z,14.20
2022-11-28T17:34:48.515Z,17.92
2022-11-28T17:39:12.270Z,13.77
2022-11-28T17:43:38.887Z,14.35
2022-11-28T17:48:01.447Z,14.80
2022-11-28T17:52:30.284Z,13.13
2022-11-28T17:56:54.300Z,13.88
2022-11-28T18:01:22.170Z,13.77
2022-11-28T18:05:47.413Z,12.77
2022-11-28T18:10:09.997Z,12.68
2022-11-28T18:14:38.131Z,13.10
2022-11-28T18:19:02.792Z,12.57
2022-11-28T18:23:24.831Z,11.88
2022-11-28T18:27:46.936Z,11.85
2022-11-28T18:32:08.741Z,13.82
2022-11-28T18:36:33.484Z,14.52
2022-11-28T18:40:55.382Z,12.90
2022-11-28T18:45:17.634Z,14.38
2022-11-28T18:49:40.034Z,13.57
2022-11-28T18:54:05.558Z,13.18
2022-11-28T18:58:29.492Z,13.25
2022-11-28T19:02:53.259Z,14.10
2022-11-28T19:07:15.480Z,13.80
2022-11-28T19:11:37.737Z,13.35
2022-11-28T19:15:59.420Z,13.15
2022-11-28T19:20:22.653Z,13.55
2022-11-28T19:24:44.541Z,12.30
2022-11-28T19:29:07.382Z,14.25
2022-11-28T19:33:29.151Z,13.50
2022-11-28T19:37:51.183Z,13.15
2022-11-28T19:42:13.345Z,12.88
2022-11-28T19:46:35.972Z,13.70
2022-11-28T19:50:59.108Z,13.18
2022-11-28T19:55:21.072Z,12.68
2022-11-28T19:59:43.207Z,11.52
2022-11-28T20:04:05.947Z,12.05
2022-11-28T20:08:28.834Z,10.63
2022-11-28T20:12:50.831Z,11.32
2022-11-28T20:17:13.714Z,12.75
2022-11-28T20:21:35.816Z,12.52
2022-11-28T20:26:05.027Z,12.57
2022-11-28T20:30:27.887Z,12.82
2022-11-28T20:34:49.628Z,13.02
2022-11-28T20:39:12.790Z,12.18
2022-11-28T20:43:37.915Z,13.40
2022-11-28T20:48:01.793Z,13.23
2022-11-28T20:52:23.590Z,11.52
2022-11-28T20:57:19.302Z,13.02
2022-11-28T21:01:34.174Z,12.05
2022-11-28T21:06:00.881Z,13.63
2022-11-28T21:10:23.655Z,12.05
2022-11-28T21:14:45.617Z,12.80
2022-11-28T21:19:09.556Z,13.40
2022-11-28T21:23:31.309Z,13.45
2022-11-28T21:27:53.226Z,13.98
2022-11-28T21:32:16.300Z,12.55
2022-11-28T21:36:38.195Z,12.75
2022-11-28T21:41:01.064Z,11.52
2022-11-28T21:45:24.025Z,11.45
2022-11-28T21:49:45.958Z,12.27
2022-11-28T21:54:07.777Z,11.63
2022-11-28T21:58:30.824Z,13.68
2022-11-28T22:02:56.915Z,11.77
2022-11-28T22:07:23.264Z,11.27
2022-11-28T22:11:46.190Z,12.35
2022-11-28T22:16:23.754Z,11.68
2022-11-28T22:20:50.266Z,10.95
2022-11-28T22:25:14.905Z,10.93
2022-11-28T22:29:36.954Z,10.95
2022-11-28T22:33:59.238Z,11.20
2022-11-28T22:38:21.180Z,10.95
2022-11-28T22:42:43.312Z,10.85
2022-11-28T22:47:05.580Z,11.55
2022-11-28T22:51:29.619Z,10.57
2022-11-28T22:55:51.928Z,11.70
2022-11-28T23:00:15.561Z,10.20
2022-11-28T23:04:38.032Z,10.45
2022-11-28T23:09:05.206Z,10.50
2022-11-28T23:13:28.237Z,8.35
2022-11-28T23:17:50.437Z,10.20
2022-11-28T23:22:12.223Z,9.50
2022-11-28T23:26:35.090Z,9.98
2022-11-28T23:31:25.703Z,9.55
2022-11-28T23:35:49.730Z,9.25
2022-11-28T23:40:12.323Z,10.60
2022-11-28T23:44:34.519Z,9.52
2022-11-28T23:48:56.978Z,8.82
2022-11-28T23:53:18.909Z,10.00
2022-11-28T23:57:40.970Z,10.38
